Flight Track Log - Related Links

Times and Time Zones

All times are in EDT time to prevent confusion due to time zone crossing. See the FLG4222 flight status page for this flight to view local times or setup timezone preferences in your user account.

Time Position Orientation Groundspeed Altitude Reporting Facility
EDT Latitude Longitude Course Direction KTS MPH feet Rate Location/Type
Sat 11:44:47 AM 42.1222 -75.9581 288° West 220 253 5,900  Level Cleveland Center
Sat 11:45:48 AM 42.1475 -76.0569 289° West 270 311 7,800 1,463 Climbing Cleveland Center
Sat 11:46:50 AM 42.1803 -76.1550 294° West 212 244 8,900 1,650 Climbing New York Center
Sat 11:47:48 AM 42.2108 -76.2611 291° West 264 304 11,100 1,984 Climbing New York Center
Sat 11:48:54 AM 42.2575 -76.3989 295° West 341 392 13,000 1,843 Climbing Cleveland Center
Sat 11:49:00 AM 42.2323 -76.8010 299° West  Level Estimated
Sat 11:49:55 AM 42.2989 -76.5300 293° West 359 413 15,000  Level Cleveland Center
Sat 11:50:00 AM 42.2357 -76.9380 288° West  Level Estimated
Sat 11:50:57 AM 42.3386 -76.6578 293° West 369 425 16,800  Level Cleveland Center
Sat 11:51:59 AM 42.3792 -76.7892 293° West 379 436 17,900 1,122 Climbing Cleveland Center
Sat 11:53:00 AM 42.4203 -76.9239 292° West 385 443 19,100 1,171 Climbing Cleveland Center
Sat 11:54:02 AM 42.4631 -77.0633 293° West 398 458 20,300 1,161 Climbing Cleveland Center
Sat 11:55:04 AM 42.5050 -77.2033 292° West 402 463 21,500 1,113 Climbing Cleveland Center
Sat 11:56:06 AM 42.5475 -77.3439 292° West 403 464 22,600 1,073 Climbing Cleveland Center
Sat 11:57:07 AM 42.5972 -77.5094 292° West 406 467 23,700 683 Climbing Cleveland Center
Sat 11:58:09 AM 42.6389 -77.6519 292° West 407 468 24,000 145 Climbing Cleveland Center
Sat 11:59:11 AM 42.6894 -77.8194 292° West 432 497 24,000  Level Cleveland Center
Sat 12:00:13 PM 42.7281 -77.9514 292° West 444 511 24,000  Level Cleveland Center
Sat 12:01:14 PM 42.7817 -78.1347 292° West 437 503 24,000  Level Cleveland Center
Sat 12:02:16 PM 42.8253 -78.2878 291° West 437 503 24,000  Level Cleveland Center
Sat 12:03:18 PM 42.8694 -78.4400 292° West 434 499 24,000  Level Cleveland Center
Sat 12:04:20 PM 42.9136 -78.5928 292° West 436 502 24,000  Level Cleveland Center
Sat 12:05:22 PM 42.9114 -78.7556 269° West 450 518 24,000  Level Cleveland Center
Sat 12:06:24 PM 42.8892 -78.9222 260° West 447 514 24,000  Level Cleveland Center
Sat 12:07:25 PM 42.8600 -79.1200 259° West 445 512 24,000  Level Cleveland Center
Sat 12:08:27 PM 42.8356 -79.2836 259° West 443 510 24,000  Level Cleveland Center
Sat 12:09:29 PM 42.8111 -79.4467 259° West 442 509 24,000  Level Cleveland Center
Sat 12:10:31 PM 42.7858 -79.6106 258° West 442 509 24,000  Level Cleveland Center
Sat 12:11:33 PM 42.7606 -79.7736 258° West 443 510 24,000  Level Cleveland Center
Sat 12:12:35 PM 42.7467 -79.9394 264° West 440 506 24,000  Level Cleveland Center
Sat 12:13:36 PM 42.7383 -80.1300 267° West 441 507 24,000  Level Cleveland Center
Sat 12:14:38 PM 42.7319 -80.2969 267° West 442 509 24,000  Level Cleveland Center
Sat 12:15:40 PM 42.7231 -80.4614 266° West 437 503 24,000  Level Cleveland Center
Sat 12:16:42 PM 42.7169 -80.6275 267° West 437 503 24,000  Level Cleveland Center
Sat 12:17:44 PM 42.7092 -80.7978 267° West 447 514 24,000  Level Cleveland Center
Sat 12:18:46 PM 42.6972 -80.9644 264° West 444 511 24,000 -532 Level Cleveland Center
Sat 12:19:48 PM 42.6747 -81.1561 261° West 440 506 22,900 -1,065 Descending Cleveland Center
Sat 12:20:50 PM 42.6572 -81.3200 262° West 437 503 21,800 -1,016 Descending Cleveland Center
Sat 12:21:52 PM 42.6375 -81.4783 260° West 426 490 20,800 -871 Descending Cleveland Center
Sat 12:22:54 PM 42.6186 -81.6333 261° West 418 481 20,000 -387 Descending Cleveland Center
Sat 12:23:56 PM 42.6003 -81.7956 261° West 406 467 20,000  Level Cleveland Center
Sat 12:24:58 PM 42.5814 -81.9461 260° West 405 466 20,000 -780 Level Cleveland Center
Sat 12:25:59 PM 42.5628 -82.0969 261° West 407 468 18,400 -1,865 Descending Cleveland Center
Sat 12:26:12 PM 42.5589 -82.1369 262° West 404 465 17,700 -2,571 Descending Cleveland Center
Sat 12:26:55 PM 42.5450 -82.2514 261° West 398 458 16,000 -2,082 Descending Cleveland Center
Sat 12:27:01 PM 42.5450 -82.2453 90° East 403 464 16,000 -2,618 Level Cleveland Center
Sat 12:27:50 PM 42.5297 -82.3825 261° West 377 434 13,600 -2,516 Descending Cleveland Center
Sat 12:28:03 PM 42.5275 -82.3858 228° Southwest 388 447 13,400 -1,548 Descending Cleveland Center
Sat 12:28:52 PM 42.5147 -82.5078 262° West 323 372 12,000 -1,355 Descending Cleveland Center
Sat 12:29:05 PM 42.5111 -82.5125 224° Southwest 353 406 12,000 -393 Level Cleveland Center
Sat 12:29:53 PM 42.4842 -82.6142 250° West 303 349 11,600 -774 Descending Cleveland Center
Sat 12:30:07 PM 42.4736 -82.6361 237° Southwest 303 349 11,200 -1,355 Descending Cleveland Center
Sat 12:30:55 PM 42.4472 -82.7225 248° West 297 342 10,200 -1,258 Descending Cleveland Center
Sat 12:31:09 PM 42.4392 -82.7372 233° Southwest 299 344 9,900 -1,377 Descending Cleveland Center
Sat 12:31:56 PM 42.4211 -82.8208 254° West 284 327 8,800 -1,355 Descending Cleveland Center
Sat 12:32:11 PM 42.4183 -82.8372 257° West 283 326 8,500 -1,355 Descending Cleveland Center
Sat 12:32:58 PM 42.4072 -82.9264 260° West 283 326 7,400 -1,258 Descending Cleveland Center
Sat 12:33:13 PM 42.4028 -82.9425 250° West 284 327 7,200 -787 Descending Cleveland Center
Sat 12:33:59 PM 42.3933 -83.0261 261° West 247 284 6,600 -581 Descending Cleveland Center
Sat 12:34:15 PM 42.3911 -83.0356 252° West 262 302 6,600 -590 Level Cleveland Center
Sat 12:35:00 PM 42.3775 -83.0975 253° West 181 208 6,000 -677 Descending Cleveland Center
Sat 12:35:17 PM 42.3742 -83.1017 223° Southwest 202 232 5,900 -984 Descending Cleveland Center
Sat 12:36:01 PM 42.3619 -83.1658 256° West 182 209 5,000 -1,161 Descending Cleveland Center
Sat 12:36:19 PM 42.3586 -83.1822 255° West 185 213 4,700 -484 Descending Cleveland Center
Sat 12:37:03 PM 42.3467 -83.2289 251° West 170 196 4,500 -290 Descending Cleveland Center
Sat 12:37:21 PM 42.3386 -83.2389 223° Southwest 171 197 4,400 -984 Descending Cleveland Center
Sat 12:38:04 PM 42.3081 -83.2686 216° Southwest 164 189 3,500 -1,161 Descending Cleveland Center
Sat 12:38:23 PM 42.2994 -83.2744 207° Southwest 169 194 3,200 -1,286 Descending Cleveland Center
Sat 12:39:00 PM 42.2744 -83.2950 211° Southwest 146 168 2,300 -1,258 Descending Cleveland Center
Sat 12:39:25 PM 42.2622 -83.3011 200° South 158 182 1,900 -985 Descending Cleveland Center
Sat 12:40:07 PM 42.2367 -83.3236 213° Southwest 139 160 1,200 -871 Descending Cleveland Center
Sat 12:40:27 PM 42.2289 -83.3258 192° South 142 163 1,000 -600 Descending Cleveland Center
Sat 12:42:00 PM 42.2124 -83.3534 246° West  Level Estimated
Sat 12:49:00 PM 42.2124 -83.3534 246° West  Level Estimated

Login

Don't have an account? Register now (free) for customized features, flight alerts, and more!